Nova Vicosa, Brazil
Current Conditions -  °F | °C
As of 4:00 AM on Wednesday 22 Oct 2014 (Local Time) from SBPS Reporting Station
Light Rain Light Rain  
Wind Chill: 72°   Ceiling: 3500
Heat Index: 72°   Visibility: 1.8mi
Dew Point: 70°   Wind: 2mph
Humidity: 94%   Direction: NA
Pressure: 29.97"   Gusts: NA
Location:  17.89°S, 39.37°W
Report Text: SBPS 220700Z VRB02KT 3000 -RA BR SCT002 OVC035 22/21 Q1015
Loading
Personal Weather Stations






























Interactive Weather Map
Tropical Storm Tracking
New forecast layout! Learn more

10-Day Weather Forecast

Advertisements
Track Severe Weather on mobile